sensor_id;sensor_type;location;lat;lon;timestamp;P1;durP1;ratioP1;P2;durP2;ratioP2
11646;SDS011;5880;52.342;9.662;2022-08-07T00:01:54;1.40;;;1.30;;
11646;SDS011;5880;52.342;9.662;2022-08-07T00:04:20;1.40;;;1.30;;
11646;SDS011;5880;52.342;9.662;2022-08-07T00:06:46;1.43;;;1.33;;
11646;SDS011;5880;52.342;9.662;2022-08-07T00:09:11;1.33;;;1.23;;
11646;SDS011;5880;52.342;9.662;2022-08-07T00:11:37;1.40;;;1.30;;
11646;SDS011;5880;52.342;9.662;2022-08-07T00:14:03;1.60;;;1.50;;
11646;SDS011;5880;52.342;9.662;2022-08-07T00:16:29;1.70;;;1.40;;
11646;SDS011;5880;52.342;9.662;2022-08-07T00:18:54;1.60;;;1.47;;
11646;SDS011;5880;52.342;9.662;2022-08-07T00:21:20;2.17;;;1.60;;
11646;SDS011;5880;52.342;9.662;2022-08-07T00:23:46;2.20;;;1.67;;
11646;SDS011;5880;52.342;9.662;2022-08-07T00:26:11;1.47;;;1.30;;
11646;SDS011;5880;52.342;9.662;2022-08-07T00:28:37;1.90;;;1.37;;
11646;SDS011;5880;52.342;9.662;2022-08-07T00:31:04;1.50;;;1.40;;
11646;SDS011;5880;52.342;9.662;2022-08-07T00:33:34;1.70;;;1.60;;
11646;SDS011;5880;52.342;9.662;2022-08-07T00:36:01;1.50;;;1.30;;
11646;SDS011;5880;52.342;9.662;2022-08-07T00:38:29;1.47;;;1.37;;
11646;SDS011;5880;52.342;9.662;2022-08-07T00:40:56;1.70;;;1.40;;
11646;SDS011;5880;52.342;9.662;2022-08-07T00:43:22;1.77;;;1.40;;
11646;SDS011;5880;52.342;9.662;2022-08-07T00:45:48;2.33;;;1.60;;
11646;SDS011;5880;52.342;9.662;2022-08-07T00:48:14;2.47;;;1.40;;
11646;SDS011;5880;52.342;9.662;2022-08-07T00:50:40;1.20;;;1.20;;
11646;SDS011;5880;52.342;9.662;2022-08-07T00:53:06;1.63;;;1.53;;
11646;SDS011;5880;52.342;9.662;2022-08-07T00:55:32;1.40;;;1.30;;
11646;SDS011;5880;52.342;9.662;2022-08-07T00:57:58;1.40;;;1.30;;
11646;SDS011;5880;52.342;9.662;2022-08-07T01:00:24;1.60;;;1.50;;
11646;SDS011;5880;52.342;9.662;2022-08-07T01:02:50;1.80;;;1.43;;
11646;SDS011;5880;52.342;9.662;2022-08-07T01:05:16;1.40;;;1.30;;
11646;SDS011;5880;52.342;9.662;2022-08-07T01:07:44;1.57;;;1.47;;
11646;SDS011;5880;52.342;9.662;2022-08-07T01:10:10;1.63;;;1.40;;
11646;SDS011;5880;52.342;9.662;2022-08-07T01:12:37;1.80;;;1.53;;
11646;SDS011;5880;52.342;9.662;2022-08-07T01:15:06;3.70;;;1.87;;
11646;SDS011;5880;52.342;9.662;2022-08-07T01:17:33;1.60;;;1.50;;
11646;SDS011;5880;52.342;9.662;2022-08-07T01:20:04;2.00;;;1.80;;
11646;SDS011;5880;52.342;9.662;2022-08-07T01:22:37;2.00;;;1.80;;
11646;SDS011;5880;52.342;9.662;2022-08-07T01:25:05;2.27;;;2.07;;
11646;SDS011;5880;52.342;9.662;2022-08-07T01:27:36;2.47;;;2.00;;
11646;SDS011;5880;52.342;9.662;2022-08-07T01:30:02;2.57;;;2.10;;
11646;SDS011;5880;52.342;9.662;2022-08-07T01:32:28;2.30;;;2.00;;
11646;SDS011;5880;52.342;9.662;2022-08-07T01:34:54;2.13;;;2.03;;
11646;SDS011;5880;52.342;9.662;2022-08-07T01:37:20;2.10;;;1.90;;
11646;SDS011;5880;52.342;9.662;2022-08-07T01:39:46;2.60;;;1.97;;
11646;SDS011;5880;52.342;9.662;2022-08-07T01:42:13;2.10;;;1.90;;
11646;SDS011;5880;52.342;9.662;2022-08-07T01:44:40;3.50;;;2.17;;
11646;SDS011;5880;52.342;9.662;2022-08-07T01:47:06;2.43;;;2.00;;
11646;SDS011;5880;52.342;9.662;2022-08-07T01:49:33;2.50;;;1.90;;
11646;SDS011;5880;52.342;9.662;2022-08-07T01:52:00;2.27;;;2.07;;
11646;SDS011;5880;52.342;9.662;2022-08-07T01:54:29;3.60;;;2.30;;
11646;SDS011;5880;52.342;9.662;2022-08-07T01:57:04;2.40;;;2.13;;
11646;SDS011;5880;52.342;9.662;2022-08-07T01:59:45;2.37;;;2.17;;
11646;SDS011;5880;52.342;9.662;2022-08-07T02:02:37;2.50;;;2.10;;
11646;SDS011;5880;52.342;9.662;2022-08-07T02:05:21;2.10;;;1.90;;
11646;SDS011;5880;52.342;9.662;2022-08-07T02:08:00;2.43;;;2.10;;
11646;SDS011;5880;52.342;9.662;2022-08-07T02:10:31;2.37;;;2.10;;
11646;SDS011;5880;52.342;9.662;2022-08-07T02:13:00;2.43;;;2.07;;
11646;SDS011;5880;52.342;9.662;2022-08-07T02:15:29;3.93;;;2.30;;
11646;SDS011;5880;52.342;9.662;2022-08-07T02:17:58;2.60;;;2.27;;
11646;SDS011;5880;52.342;9.662;2022-08-07T02:20:27;2.30;;;2.10;;
11646;SDS011;5880;52.342;9.662;2022-08-07T02:22:58;2.93;;;2.33;;
11646;SDS011;5880;52.342;9.662;2022-08-07T02:25:29;2.30;;;2.10;;
11646;SDS011;5880;52.342;9.662;2022-08-07T02:27:58;2.67;;;2.47;;
11646;SDS011;5880;52.342;9.662;2022-08-07T02:30:26;2.57;;;2.37;;
11646;SDS011;5880;52.342;9.662;2022-08-07T02:32:54;3.07;;;2.33;;
11646;SDS011;5880;52.342;9.662;2022-08-07T02:35:24;3.77;;;2.37;;
11646;SDS011;5880;52.342;9.662;2022-08-07T02:37:51;2.70;;;2.50;;
11646;SDS011;5880;52.342;9.662;2022-08-07T02:40:21;2.50;;;2.30;;
11646;SDS011;5880;52.342;9.662;2022-08-07T02:42:48;2.93;;;2.37;;
11646;SDS011;5880;52.342;9.662;2022-08-07T02:45:15;2.67;;;2.47;;
11646;SDS011;5880;52.342;9.662;2022-08-07T02:47:43;2.40;;;2.20;;
11646;SDS011;5880;52.342;9.662;2022-08-07T02:50:09;2.60;;;2.40;;
11646;SDS011;5880;52.342;9.662;2022-08-07T02:55:31;2.57;;;2.37;;
11646;SDS011;5880;52.342;9.662;2022-08-07T02:58:03;2.73;;;2.47;;
11646;SDS011;5880;52.342;9.662;2022-08-07T03:00:34;2.90;;;2.60;;
11646;SDS011;5880;52.342;9.662;2022-08-07T03:03:01;3.77;;;2.83;;
11646;SDS011;5880;52.342;9.662;2022-08-07T03:05:31;4.33;;;2.90;;
11646;SDS011;5880;52.342;9.662;2022-08-07T03:08:00;3.17;;;2.33;;
11646;SDS011;5880;52.342;9.662;2022-08-07T03:10:28;2.97;;;2.67;;
11646;SDS011;5880;52.342;9.662;2022-08-07T03:12:56;2.83;;;2.63;;
11646;SDS011;5880;52.342;9.662;2022-08-07T03:15:23;2.70;;;2.50;;
11646;SDS011;5880;52.342;9.662;2022-08-07T03:17:49;3.00;;;2.70;;
11646;SDS011;5880;52.342;9.662;2022-08-07T03:20:15;3.60;;;3.00;;
11646;SDS011;5880;52.342;9.662;2022-08-07T03:22:42;3.20;;;2.90;;
11646;SDS011;5880;52.342;9.662;2022-08-07T03:25:10;3.33;;;3.03;;
11646;SDS011;5880;52.342;9.662;2022-08-07T03:27:36;3.83;;;2.60;;
11646;SDS011;5880;52.342;9.662;2022-08-07T03:30:03;5.40;;;2.57;;
11646;SDS011;5880;52.342;9.662;2022-08-07T03:32:33;3.53;;;2.83;;
11646;SDS011;5880;52.342;9.662;2022-08-07T03:35:05;2.97;;;2.70;;
11646;SDS011;5880;52.342;9.662;2022-08-07T03:37:37;2.77;;;2.50;;
11646;SDS011;5880;52.342;9.662;2022-08-07T03:40:07;3.90;;;3.20;;
11646;SDS011;5880;52.342;9.662;2022-08-07T03:42:34;3.00;;;2.80;;
11646;SDS011;5880;52.342;9.662;2022-08-07T03:45:01;3.40;;;2.90;;
11646;SDS011;5880;52.342;9.662;2022-08-07T03:47:29;3.30;;;2.70;;
11646;SDS011;5880;52.342;9.662;2022-08-07T03:49:56;3.17;;;2.80;;
11646;SDS011;5880;52.342;9.662;2022-08-07T03:52:24;3.80;;;3.20;;
11646;SDS011;5880;52.342;9.662;2022-08-07T03:54:55;3.33;;;3.03;;
11646;SDS011;5880;52.342;9.662;2022-08-07T03:57:23;3.83;;;3.43;;
11646;SDS011;5880;52.342;9.662;2022-08-07T03:59:51;4.00;;;3.07;;
11646;SDS011;5880;52.342;9.662;2022-08-07T04:02:18;4.13;;;3.30;;
11646;SDS011;5880;52.342;9.662;2022-08-07T04:04:45;4.40;;;3.27;;
11646;SDS011;5880;52.342;9.662;2022-08-07T04:07:11;5.93;;;3.37;;
11646;SDS011;5880;52.342;9.662;2022-08-07T04:09:40;4.23;;;2.93;;
11646;SDS011;5880;52.342;9.662;2022-08-07T04:12:06;4.43;;;3.43;;
11646;SDS011;5880;52.342;9.662;2022-08-07T04:14:33;3.40;;;3.10;;
11646;SDS011;5880;52.342;9.662;2022-08-07T04:16:59;3.43;;;3.13;;
11646;SDS011;5880;52.342;9.662;2022-08-07T04:19:25;3.93;;;3.53;;
11646;SDS011;5880;52.342;9.662;2022-08-07T04:21:51;3.93;;;3.27;;
11646;SDS011;5880;52.342;9.662;2022-08-07T04:24:18;3.67;;;3.10;;
11646;SDS011;5880;52.342;9.662;2022-08-07T04:26:45;3.57;;;3.27;;
11646;SDS011;5880;52.342;9.662;2022-08-07T04:29:11;4.20;;;3.13;;
11646;SDS011;5880;52.342;9.662;2022-08-07T04:31:37;3.70;;;3.20;;
11646;SDS011;5880;52.342;9.662;2022-08-07T04:34:04;4.00;;;3.50;;
11646;SDS011;5880;52.342;9.662;2022-08-07T04:36:34;3.63;;;3.23;;
11646;SDS011;5880;52.342;9.662;2022-08-07T04:39:00;3.80;;;3.40;;
11646;SDS011;5880;52.342;9.662;2022-08-07T04:41:28;4.03;;;3.63;;
11646;SDS011;5880;52.342;9.662;2022-08-07T04:43:53;3.80;;;3.40;;
11646;SDS011;5880;52.342;9.662;2022-08-07T04:52:11;4.13;;;3.63;;
11646;SDS011;5880;52.342;9.662;2022-08-07T05:00:00;3.70;;;3.23;;
11646;SDS011;5880;52.342;9.662;2022-08-07T05:02:42;4.23;;;3.30;;
11646;SDS011;5880;52.342;9.662;2022-08-07T05:08:21;4.10;;;3.33;;
11646;SDS011;5880;52.342;9.662;2022-08-07T05:14:02;4.10;;;3.50;;
11646;SDS011;5880;52.342;9.662;2022-08-07T05:16:39;4.03;;;3.40;;
11646;SDS011;5880;52.342;9.662;2022-08-07T05:19:12;3.30;;;3.00;;
11646;SDS011;5880;52.342;9.662;2022-08-07T05:21:43;3.77;;;3.40;;
11646;SDS011;5880;52.342;9.662;2022-08-07T05:24:16;4.30;;;3.90;;
11646;SDS011;5880;52.342;9.662;2022-08-07T05:26:46;4.57;;;3.40;;
11646;SDS011;5880;52.342;9.662;2022-08-07T05:29:16;4.27;;;3.50;;
11646;SDS011;5880;52.342;9.662;2022-08-07T05:31:45;5.30;;;3.73;;
11646;SDS011;5880;52.342;9.662;2022-08-07T05:34:14;4.80;;;3.83;;
11646;SDS011;5880;52.342;9.662;2022-08-07T05:36:49;3.80;;;3.40;;
11646;SDS011;5880;52.342;9.662;2022-08-07T05:39:17;4.20;;;3.63;;
11646;SDS011;5880;52.342;9.662;2022-08-07T05:41:46;4.00;;;3.63;;
11646;SDS011;5880;52.342;9.662;2022-08-07T05:44:14;4.03;;;3.63;;
11646;SDS011;5880;52.342;9.662;2022-08-07T05:46:44;4.10;;;3.60;;
11646;SDS011;5880;52.342;9.662;2022-08-07T05:49:13;4.20;;;3.80;;
11646;SDS011;5880;52.342;9.662;2022-08-07T05:51:42;4.20;;;3.67;;
11646;SDS011;5880;52.342;9.662;2022-08-07T05:54:10;3.70;;;3.40;;
11646;SDS011;5880;52.342;9.662;2022-08-07T05:56:37;4.67;;;3.70;;
11646;SDS011;5880;52.342;9.662;2022-08-07T05:59:06;4.90;;;3.37;;
11646;SDS011;5880;52.342;9.662;2022-08-07T06:01:41;4.23;;;3.43;;
11646;SDS011;5880;52.342;9.662;2022-08-07T06:04:09;3.70;;;3.40;;
11646;SDS011;5880;52.342;9.662;2022-08-07T06:06:38;4.30;;;3.40;;
11646;SDS011;5880;52.342;9.662;2022-08-07T06:09:04;3.80;;;3.40;;
11646;SDS011;5880;52.342;9.662;2022-08-07T06:11:34;3.60;;;3.30;;
11646;SDS011;5880;52.342;9.662;2022-08-07T06:14:01;3.77;;;3.20;;
11646;SDS011;5880;52.342;9.662;2022-08-07T06:16:30;5.03;;;3.83;;
11646;SDS011;5880;52.342;9.662;2022-08-07T06:19:01;4.65;;;3.80;;
11646;SDS011;5880;52.342;9.662;2022-08-07T06:21:28;3.60;;;3.30;;
11646;SDS011;5880;52.342;9.662;2022-08-07T06:23:55;4.20;;;3.80;;
11646;SDS011;5880;52.342;9.662;2022-08-07T06:26:21;3.83;;;3.45;;
11646;SDS011;5880;52.342;9.662;2022-08-07T06:28:51;3.80;;;3.40;;
11646;SDS011;5880;52.342;9.662;2022-08-07T06:31:20;3.67;;;3.38;;
11646;SDS011;5880;52.342;9.662;2022-08-07T06:33:47;4.03;;;3.60;;
11646;SDS011;5880;52.342;9.662;2022-08-07T06:36:13;4.22;;;3.83;;
11646;SDS011;5880;52.342;9.662;2022-08-07T06:38:39;3.70;;;3.40;;
11646;SDS011;5880;52.342;9.662;2022-08-07T06:44:10;3.45;;;2.97;;
11646;SDS011;5880;52.342;9.662;2022-08-07T06:46:39;3.80;;;3.20;;
11646;SDS011;5880;52.342;9.662;2022-08-07T06:49:06;3.55;;;3.03;;
11646;SDS011;5880;52.342;9.662;2022-08-07T06:51:32;5.55;;;3.90;;
11646;SDS011;5880;52.342;9.662;2022-08-07T06:54:02;4.20;;;3.13;;
11646;SDS011;5880;52.342;9.662;2022-08-07T06:56:29;3.50;;;3.20;;
11646;SDS011;5880;52.342;9.662;2022-08-07T06:59:05;3.72;;;3.40;;
11646;SDS011;5880;52.342;9.662;2022-08-07T07:01:33;3.92;;;3.50;;
11646;SDS011;5880;52.342;9.662;2022-08-07T07:04:01;3.83;;;3.42;;
11646;SDS011;5880;52.342;9.662;2022-08-07T07:06:31;4.53;;;3.85;;
11646;SDS011;5880;52.342;9.662;2022-08-07T07:11:53;4.28;;;3.88;;
11646;SDS011;5880;52.342;9.662;2022-08-07T07:14:31;3.50;;;3.05;;
11646;SDS011;5880;52.342;9.662;2022-08-07T07:21:05;3.80;;;3.50;;
11646;SDS011;5880;52.342;9.662;2022-08-07T07:23:21;7.88;;;3.78;;
11646;SDS011;5880;52.342;9.662;2022-08-07T07:25:51;4.63;;;3.88;;
11646;SDS011;5880;52.342;9.662;2022-08-07T07:28:34;4.32;;;3.80;;
11646;SDS011;5880;52.342;9.662;2022-08-07T07:31:13;4.95;;;3.75;;
11646;SDS011;5880;52.342;9.662;2022-08-07T07:33:47;4.22;;;3.60;;
11646;SDS011;5880;52.342;9.662;2022-08-07T07:36:21;3.63;;;3.33;;
11646;SDS011;5880;52.342;9.662;2022-08-07T07:38:49;3.65;;;3.28;;
11646;SDS011;5880;52.342;9.662;2022-08-07T07:41:16;4.57;;;3.42;;
11646;SDS011;5880;52.342;9.662;2022-08-07T07:43:45;3.95;;;3.65;;
11646;SDS011;5880;52.342;9.662;2022-08-07T07:46:15;4.05;;;3.65;;
11646;SDS011;5880;52.342;9.662;2022-08-07T07:48:41;3.90;;;3.50;;
11646;SDS011;5880;52.342;9.662;2022-08-07T07:51:12;4.35;;;3.83;;
11646;SDS011;5880;52.342;9.662;2022-08-07T07:53:41;5.45;;;3.65;;
11646;SDS011;5880;52.342;9.662;2022-08-07T07:56:11;3.63;;;3.33;;
11646;SDS011;5880;52.342;9.662;2022-08-07T07:58:38;3.90;;;3.42;;
11646;SDS011;5880;52.342;9.662;2022-08-07T08:01:06;4.18;;;3.78;;
11646;SDS011;5880;52.342;9.662;2022-08-07T08:03:35;4.78;;;3.80;;
11646;SDS011;5880;52.342;9.662;2022-08-07T08:06:05;4.07;;;3.67;;
11646;SDS011;5880;52.342;9.662;2022-08-07T08:08:32;6.15;;;3.30;;
11646;SDS011;5880;52.342;9.662;2022-08-07T08:11:00;3.45;;;3.15;;
11646;SDS011;5880;52.342;9.662;2022-08-07T08:13:28;3.30;;;3.00;;
11646;SDS011;5880;52.342;9.662;2022-08-07T08:15:55;3.97;;;3.58;;
11646;SDS011;5880;52.342;9.662;2022-08-07T08:18:25;3.83;;;3.40;;
11646;SDS011;5880;52.342;9.662;2022-08-07T08:20:53;6.70;;;3.42;;
11646;SDS011;5880;52.342;9.662;2022-08-07T08:23:24;3.10;;;2.80;;
11646;SDS011;5880;52.342;9.662;2022-08-07T08:26:14;3.50;;;3.20;;
11646;SDS011;5880;52.342;9.662;2022-08-07T08:29:01;3.78;;;2.83;;
11646;SDS011;5880;52.342;9.662;2022-08-07T08:31:30;2.78;;;2.58;;
11646;SDS011;5880;52.342;9.662;2022-08-07T08:34:01;3.72;;;2.80;;
11646;SDS011;5880;52.342;9.662;2022-08-07T08:36:30;3.10;;;2.80;;
11646;SDS011;5880;52.342;9.662;2022-08-07T08:39:00;2.50;;;2.30;;
11646;SDS011;5880;52.342;9.662;2022-08-07T08:41:46;2.50;;;2.30;;
11646;SDS011;5880;52.342;9.662;2022-08-07T08:47:26;3.38;;;2.40;;
11646;SDS011;5880;52.342;9.662;2022-08-07T08:50:10;2.58;;;2.20;;
11646;SDS011;5880;52.342;9.662;2022-08-07T08:55:46;2.50;;;2.30;;
11646;SDS011;5880;52.342;9.662;2022-08-07T09:01:16;2.45;;;2.25;;
11646;SDS011;5880;52.342;9.662;2022-08-07T09:09:45;2.40;;;2.20;;
11646;SDS011;5880;52.342;9.662;2022-08-07T09:15:36;1.77;;;1.67;;
11646;SDS011;5880;52.342;9.662;2022-08-07T09:24:56;2.30;;;1.65;;
11646;SDS011;5880;52.342;9.662;2022-08-07T09:39:58;1.10;;;1.10;;
11646;SDS011;5880;52.342;9.662;2022-08-07T09:42:45;1.20;;;1.10;;
11646;SDS011;5880;52.342;9.662;2022-08-07T09:45:39;0.98;;;0.95;;
11646;SDS011;5880;52.342;9.662;2022-08-07T09:54:37;0.93;;;0.93;;
11646;SDS011;5880;52.342;9.662;2022-08-07T09:57:24;1.10;;;1.00;;
11646;SDS011;5880;52.342;9.662;2022-08-07T10:00:09;1.05;;;1.02;;
11646;SDS011;5880;52.342;9.662;2022-08-07T10:08:36;1.00;;;0.88;;
11646;SDS011;5880;52.342;9.662;2022-08-07T10:11:52;0.85;;;0.85;;
11646;SDS011;5880;52.342;9.662;2022-08-07T10:14:52;0.80;;;0.80;;
11646;SDS011;5880;52.342;9.662;2022-08-07T10:21:10;1.05;;;0.90;;
11646;SDS011;5880;52.342;9.662;2022-08-07T10:24:12;1.13;;;1.10;;
11646;SDS011;5880;52.342;9.662;2022-08-07T10:29:58;1.20;;;1.10;;
11646;SDS011;5880;52.342;9.662;2022-08-07T10:35:39;1.10;;;1.00;;
11646;SDS011;5880;52.342;9.662;2022-08-07T10:41:08;1.00;;;1.00;;
11646;SDS011;5880;52.342;9.662;2022-08-07T10:43:48;1.17;;;1.08;;
11646;SDS011;5880;52.342;9.662;2022-08-07T10:46:34;0.90;;;0.90;;
11646;SDS011;5880;52.342;9.662;2022-08-07T10:49:16;1.17;;;1.05;;
11646;SDS011;5880;52.342;9.662;2022-08-07T10:52:18;0.90;;;0.90;;
11646;SDS011;5880;52.342;9.662;2022-08-07T10:55:12;1.80;;;1.40;;
11646;SDS011;5880;52.342;9.662;2022-08-07T10:57:49;1.10;;;1.00;;
11646;SDS011;5880;52.342;9.662;2022-08-07T11:03:33;1.10;;;1.02;;
11646;SDS011;5880;52.342;9.662;2022-08-07T11:06:10;1.60;;;1.10;;
11646;SDS011;5880;52.342;9.662;2022-08-07T11:09:21;1.10;;;1.00;;
11646;SDS011;5880;52.342;9.662;2022-08-07T11:11:55;1.10;;;1.10;;
11646;SDS011;5880;52.342;9.662;2022-08-07T11:14:36;0.90;;;0.90;;
11646;SDS011;5880;52.342;9.662;2022-08-07T11:17:12;1.50;;;1.20;;
11646;SDS011;5880;52.342;9.662;2022-08-07T11:19:52;1.27;;;1.13;;
11646;SDS011;5880;52.342;9.662;2022-08-07T11:22:32;1.13;;;0.93;;
11646;SDS011;5880;52.342;9.662;2022-08-07T11:33:23;1.27;;;1.13;;
11646;SDS011;5880;52.342;9.662;2022-08-07T11:36:10;1.20;;;1.10;;
11646;SDS011;5880;52.342;9.662;2022-08-07T11:39:14;1.00;;;1.00;;
11646;SDS011;5880;52.342;9.662;2022-08-07T11:41:58;1.30;;;1.20;;
11646;SDS011;5880;52.342;9.662;2022-08-07T11:44:50;1.17;;;1.08;;
11646;SDS011;5880;52.342;9.662;2022-08-07T11:53:02;1.50;;;1.08;;
11646;SDS011;5880;52.342;9.662;2022-08-07T12:02:29;3.65;;;1.17;;
11646;SDS011;5880;52.342;9.662;2022-08-07T12:05:18;1.90;;;1.00;;
11646;SDS011;5880;52.342;9.662;2022-08-07T12:08:22;1.10;;;1.00;;
11646;SDS011;5880;52.342;9.662;2022-08-07T12:11:23;1.20;;;1.10;;
11646;SDS011;5880;52.342;9.662;2022-08-07T12:14:05;1.00;;;0.95;;
11646;SDS011;5880;52.342;9.662;2022-08-07T12:16:40;1.23;;;1.13;;
11646;SDS011;5880;52.342;9.662;2022-08-07T12:19:32;1.30;;;1.20;;
11646;SDS011;5880;52.342;9.662;2022-08-07T12:25:13;1.20;;;1.10;;
11646;SDS011;5880;52.342;9.662;2022-08-07T12:28:10;1.25;;;1.17;;
11646;SDS011;5880;52.342;9.662;2022-08-07T12:31:02;1.35;;;1.25;;
11646;SDS011;5880;52.342;9.662;2022-08-07T12:33:37;1.08;;;1.00;;
11646;SDS011;5880;52.342;9.662;2022-08-07T12:36:04;1.10;;;1.00;;
11646;SDS011;5880;52.342;9.662;2022-08-07T12:38:34;2.33;;;1.10;;
11646;SDS011;5880;52.342;9.662;2022-08-07T12:41:03;1.20;;;1.10;;
11646;SDS011;5880;52.342;9.662;2022-08-07T12:43:31;0.98;;;0.98;;
11646;SDS011;5880;52.342;9.662;2022-08-07T12:48:57;0.93;;;0.90;;
11646;SDS011;5880;52.342;9.662;2022-08-07T12:51:31;1.20;;;1.10;;
11646;SDS011;5880;52.342;9.662;2022-08-07T12:54:20;1.20;;;1.10;;
11646;SDS011;5880;52.342;9.662;2022-08-07T12:56:56;1.52;;;1.15;;
11646;SDS011;5880;52.342;9.662;2022-08-07T12:59:27;1.00;;;0.90;;
11646;SDS011;5880;52.342;9.662;2022-08-07T13:02:00;1.10;;;1.00;;
11646;SDS011;5880;52.342;9.662;2022-08-07T13:14:28;1.83;;;0.95;;
11646;SDS011;5880;52.342;9.662;2022-08-07T13:17:11;1.02;;;0.95;;
11646;SDS011;5880;52.342;9.662;2022-08-07T13:19:59;1.00;;;1.00;;
11646;SDS011;5880;52.342;9.662;2022-08-07T13:22:54;1.00;;;1.00;;
11646;SDS011;5880;52.342;9.662;2022-08-07T13:25:44;1.10;;;1.10;;
11646;SDS011;5880;52.342;9.662;2022-08-07T13:28:22;1.10;;;1.00;;
11646;SDS011;5880;52.342;9.662;2022-08-07T13:31:00;1.42;;;1.33;;
11646;SDS011;5880;52.342;9.662;2022-08-07T13:33:54;1.20;;;1.10;;
11646;SDS011;5880;52.342;9.662;2022-08-07T13:36:42;1.25;;;1.15;;
11646;SDS011;5880;52.342;9.662;2022-08-07T13:39:27;1.25;;;1.15;;
11646;SDS011;5880;52.342;9.662;2022-08-07T13:42:14;1.63;;;1.10;;
11646;SDS011;5880;52.342;9.662;2022-08-07T13:44:42;1.30;;;1.20;;
11646;SDS011;5880;52.342;9.662;2022-08-07T13:47:10;1.48;;;1.00;;
11646;SDS011;5880;52.342;9.662;2022-08-07T13:49:44;1.00;;;1.00;;
11646;SDS011;5880;52.342;9.662;2022-08-07T13:52:11;2.17;;;1.10;;
11646;SDS011;5880;52.342;9.662;2022-08-07T13:54:38;1.08;;;1.02;;
11646;SDS011;5880;52.342;9.662;2022-08-07T13:57:06;1.25;;;1.15;;
11646;SDS011;5880;52.342;9.662;2022-08-07T13:59:43;2.22;;;1.10;;
11646;SDS011;5880;52.342;9.662;2022-08-07T14:02:24;1.23;;;1.13;;
11646;SDS011;5880;52.342;9.662;2022-08-07T14:04:56;1.10;;;0.90;;
11646;SDS011;5880;52.342;9.662;2022-08-07T14:07:30;1.05;;;1.05;;
11646;SDS011;5880;52.342;9.662;2022-08-07T14:10:02;1.10;;;1.00;;
11646;SDS011;5880;52.342;9.662;2022-08-07T14:12:35;1.70;;;1.20;;
11646;SDS011;5880;52.342;9.662;2022-08-07T14:15:17;0.90;;;0.90;;
11646;SDS011;5880;52.342;9.662;2022-08-07T14:18:02;0.93;;;0.93;;
11646;SDS011;5880;52.342;9.662;2022-08-07T14:20:38;1.20;;;1.10;;
11646;SDS011;5880;52.342;9.662;2022-08-07T14:23:13;1.10;;;1.00;;
11646;SDS011;5880;52.342;9.662;2022-08-07T14:25:45;1.38;;;1.13;;
11646;SDS011;5880;52.342;9.662;2022-08-07T14:28:22;1.10;;;1.00;;
11646;SDS011;5880;52.342;9.662;2022-08-07T14:30:51;1.00;;;1.00;;
11646;SDS011;5880;52.342;9.662;2022-08-07T14:33:17;1.02;;;0.95;;
11646;SDS011;5880;52.342;9.662;2022-08-07T14:35:44;1.50;;;0.90;;
11646;SDS011;5880;52.342;9.662;2022-08-07T14:38:11;1.20;;;1.10;;
11646;SDS011;5880;52.342;9.662;2022-08-07T14:40:45;1.20;;;1.10;;
11646;SDS011;5880;52.342;9.662;2022-08-07T14:43:19;1.10;;;1.00;;
11646;SDS011;5880;52.342;9.662;2022-08-07T14:45:50;1.20;;;1.10;;
11646;SDS011;5880;52.342;9.662;2022-08-07T14:48:20;1.30;;;1.00;;
11646;SDS011;5880;52.342;9.662;2022-08-07T14:50:52;1.23;;;1.05;;
11646;SDS011;5880;52.342;9.662;2022-08-07T14:53:27;1.13;;;1.13;;
11646;SDS011;5880;52.342;9.662;2022-08-07T14:56:01;1.40;;;1.20;;
11646;SDS011;5880;52.342;9.662;2022-08-07T14:58:32;2.30;;;2.00;;
11646;SDS011;5880;52.342;9.662;2022-08-07T15:01:04;1.67;;;1.58;;
11646;SDS011;5880;52.342;9.662;2022-08-07T15:03:33;1.85;;;1.67;;
11646;SDS011;5880;52.342;9.662;2022-08-07T15:06:03;1.85;;;1.35;;
11646;SDS011;5880;52.342;9.662;2022-08-07T15:08:31;1.30;;;1.20;;
11646;SDS011;5880;52.342;9.662;2022-08-07T15:11:01;1.30;;;1.20;;
11646;SDS011;5880;52.342;9.662;2022-08-07T15:13:34;1.25;;;1.10;;
11646;SDS011;5880;52.342;9.662;2022-08-07T15:16:16;1.08;;;1.05;;
11646;SDS011;5880;52.342;9.662;2022-08-07T15:18:49;1.42;;;1.20;;
11646;SDS011;5880;52.342;9.662;2022-08-07T15:21:27;1.27;;;1.17;;
11646;SDS011;5880;52.342;9.662;2022-08-07T15:23:59;1.30;;;1.20;;
11646;SDS011;5880;52.342;9.662;2022-08-07T15:26:39;1.33;;;1.15;;
11646;SDS011;5880;52.342;9.662;2022-08-07T15:29:09;1.27;;;1.20;;
11646;SDS011;5880;52.342;9.662;2022-08-07T15:31:40;1.17;;;1.13;;
11646;SDS011;5880;52.342;9.662;2022-08-07T15:34:11;1.75;;;1.40;;
11646;SDS011;5880;52.342;9.662;2022-08-07T15:36:38;1.23;;;1.13;;
11646;SDS011;5880;52.342;9.662;2022-08-07T15:39:06;1.30;;;1.20;;
11646;SDS011;5880;52.342;9.662;2022-08-07T15:44:32;1.00;;;1.00;;
11646;SDS011;5880;52.342;9.662;2022-08-07T15:47:12;1.25;;;1.15;;
11646;SDS011;5880;52.342;9.662;2022-08-07T15:49:41;1.13;;;1.02;;
11646;SDS011;5880;52.342;9.662;2022-08-07T15:52:10;1.20;;;1.10;;
11646;SDS011;5880;52.342;9.662;2022-08-07T15:54:39;1.30;;;1.17;;
11646;SDS011;5880;52.342;9.662;2022-08-07T15:57:09;1.00;;;1.00;;
11646;SDS011;5880;52.342;9.662;2022-08-07T15:59:43;1.30;;;1.20;;
11646;SDS011;5880;52.342;9.662;2022-08-07T16:02:13;2.30;;;1.25;;
11646;SDS011;5880;52.342;9.662;2022-08-07T16:05:10;1.02;;;0.90;;
11646;SDS011;5880;52.342;9.662;2022-08-07T16:07:42;1.20;;;1.10;;
11646;SDS011;5880;52.342;9.662;2022-08-07T16:10:23;1.15;;;1.05;;
11646;SDS011;5880;52.342;9.662;2022-08-07T16:22:01;1.20;;;1.10;;
11646;SDS011;5880;52.342;9.662;2022-08-07T16:24:51;1.02;;;0.95;;
11646;SDS011;5880;52.342;9.662;2022-08-07T16:27:46;1.20;;;1.10;;
11646;SDS011;5880;52.342;9.662;2022-08-07T16:30:30;1.00;;;0.98;;
11646;SDS011;5880;52.342;9.662;2022-08-07T16:33:13;0.90;;;0.90;;
11646;SDS011;5880;52.342;9.662;2022-08-07T16:35:47;0.95;;;0.95;;
11646;SDS011;5880;52.342;9.662;2022-08-07T16:44:17;1.27;;;1.17;;
11646;SDS011;5880;52.342;9.662;2022-08-07T16:47:20;1.27;;;1.17;;
11646;SDS011;5880;52.342;9.662;2022-08-07T16:56:38;2.50;;;1.30;;
11646;SDS011;5880;52.342;9.662;2022-08-07T17:08:32;1.20;;;1.05;;
11646;SDS011;5880;52.342;9.662;2022-08-07T17:11:08;1.13;;;1.02;;
11646;SDS011;5880;52.342;9.662;2022-08-07T17:13:43;1.15;;;1.05;;
11646;SDS011;5880;52.342;9.662;2022-08-07T17:16:47;1.40;;;1.00;;
11646;SDS011;5880;52.342;9.662;2022-08-07T17:22:02;1.00;;;1.00;;
11646;SDS011;5880;52.342;9.662;2022-08-07T17:24:54;1.20;;;1.10;;
11646;SDS011;5880;52.342;9.662;2022-08-07T17:27:59;1.30;;;1.00;;
11646;SDS011;5880;52.342;9.662;2022-08-07T17:30:38;1.02;;;1.00;;
11646;SDS011;5880;52.342;9.662;2022-08-07T17:33:29;1.17;;;1.10;;
11646;SDS011;5880;52.342;9.662;2022-08-07T17:36:06;2.00;;;1.23;;
11646;SDS011;5880;52.342;9.662;2022-08-07T17:38:53;1.00;;;1.00;;
11646;SDS011;5880;52.342;9.662;2022-08-07T17:47:05;1.20;;;1.10;;
11646;SDS011;5880;52.342;9.662;2022-08-07T17:49:52;1.30;;;1.20;;
11646;SDS011;5880;52.342;9.662;2022-08-07T17:52:30;1.10;;;1.00;;
11646;SDS011;5880;52.342;9.662;2022-08-07T17:55:10;1.08;;;0.98;;
11646;SDS011;5880;52.342;9.662;2022-08-07T18:00:31;1.20;;;1.10;;
11646;SDS011;5880;52.342;9.662;2022-08-07T18:06:15;1.60;;;1.20;;
11646;SDS011;5880;52.342;9.662;2022-08-07T18:08:55;1.17;;;1.10;;
11646;SDS011;5880;52.342;9.662;2022-08-07T18:20:01;1.25;;;1.10;;
11646;SDS011;5880;52.342;9.662;2022-08-07T18:22:54;1.63;;;1.00;;
11646;SDS011;5880;52.342;9.662;2022-08-07T18:25:35;1.20;;;1.10;;
11646;SDS011;5880;52.342;9.662;2022-08-07T18:30:50;1.05;;;0.95;;
11646;SDS011;5880;52.342;9.662;2022-08-07T18:36:52;1.20;;;1.10;;
11646;SDS011;5880;52.342;9.662;2022-08-07T18:40:00;1.40;;;1.30;;
11646;SDS011;5880;52.342;9.662;2022-08-07T18:42:52;1.27;;;1.13;;
11646;SDS011;5880;52.342;9.662;2022-08-07T18:45:32;1.30;;;1.20;;
11646;SDS011;5880;52.342;9.662;2022-08-07T18:48:41;1.40;;;1.30;;
11646;SDS011;5880;52.342;9.662;2022-08-07T18:51:19;1.30;;;1.20;;
11646;SDS011;5880;52.342;9.662;2022-08-07T18:56:53;1.48;;;1.30;;
11646;SDS011;5880;52.342;9.662;2022-08-07T19:05:32;1.20;;;1.05;;